createdAt,value
2023-05-08T00:01:13.462Z,83.50
2023-05-08T00:03:49.600Z,83.50
2023-05-08T00:06:27.534Z,83.60
2023-05-08T00:09:03.484Z,83.40
2023-05-08T00:11:39.568Z,83.30
2023-05-08T00:14:15.535Z,83.20
2023-05-08T00:16:51.529Z,83.10
2023-05-08T00:19:27.483Z,82.90
2023-05-08T00:22:03.360Z,82.80
2023-05-08T00:24:39.290Z,82.70
2023-05-08T00:27:15.196Z,82.60
2023-05-08T00:29:52.215Z,82.50
2023-05-08T00:32:28.896Z,82.50
2023-05-08T00:35:05.226Z,82.40
2023-05-08T00:37:41.337Z,82.40
2023-05-08T00:40:17.266Z,82.90
2023-05-08T00:42:53.595Z,82.40
2023-05-08T00:45:39.849Z,82.30
2023-05-08T00:48:15.907Z,82.30
2023-05-08T00:50:53.522Z,82.30
2023-05-08T00:53:31.844Z,82.00
2023-05-08T00:56:12.540Z,81.90
2023-05-08T00:58:48.593Z,81.80
2023-05-08T01:01:25.248Z,82.20
2023-05-08T01:04:01.219Z,82.50
2023-05-08T01:06:37.705Z,82.00
2023-05-08T01:09:13.639Z,82.00
2023-05-08T01:12:21.535Z,82.10
2023-05-08T01:15:16.947Z,82.10
2023-05-08T01:18:22.546Z,82.10
2023-05-08T01:21:18.300Z,82.40
2023-05-08T01:24:31.484Z,82.30
2023-05-08T01:27:36.384Z,82.30
2023-05-08T01:30:56.941Z,82.10
2023-05-08T01:33:47.537Z,82.20
2023-05-08T01:36:34.389Z,82.50
2023-05-08T01:39:44.595Z,82.70
2023-05-08T01:42:28.288Z,82.80
2023-05-08T01:45:19.017Z,82.80
2023-05-08T01:48:12.285Z,82.90
2023-05-08T01:50:55.189Z,82.70
2023-05-08T01:54:00.857Z,82.50
2023-05-08T01:56:39.305Z,82.60
2023-05-08T01:59:20.033Z,82.70
2023-05-08T02:01:58.864Z,82.60
2023-05-08T02:04:35.231Z,82.60
2023-05-08T02:07:15.970Z,82.60
2023-05-08T02:09:53.547Z,82.60
2023-05-08T02:12:32.116Z,82.60
2023-05-08T02:15:10.472Z,82.50
2023-05-08T02:17:50.802Z,82.50
2023-05-08T02:20:28.882Z,82.60
2023-05-08T02:23:05.511Z,82.70
2023-05-08T02:25:44.890Z,82.70
2023-05-08T02:28:22.758Z,82.70
2023-05-08T02:31:00.378Z,82.70
2023-05-08T02:33:41.950Z,82.70
2023-05-08T02:36:20.022Z,82.70
2023-05-08T02:39:00.260Z,82.80
2023-05-08T02:41:38.800Z,82.90
2023-05-08T02:44:14.837Z,82.80
2023-05-08T02:47:00.227Z,82.80
2023-05-08T02:50:04.101Z,82.90
2023-05-08T02:52:52.355Z,82.90
2023-05-08T02:55:48.488Z,82.90
2023-05-08T02:58:41.660Z,82.90
2023-05-08T03:01:28.996Z,83.00
2023-05-08T03:04:09.369Z,83.00
2023-05-08T03:06:47.889Z,82.90
2023-05-08T03:09:27.213Z,83.00
2023-05-08T03:12:09.976Z,83.00
2023-05-08T03:15:19.765Z,83.10
2023-05-08T03:18:03.087Z,83.10
2023-05-08T03:20:43.714Z,83.00
2023-05-08T03:23:22.580Z,83.00
2023-05-08T03:26:01.093Z,83.10
2023-05-08T03:28:39.172Z,83.00
2023-05-08T03:31:19.078Z,83.00
2023-05-08T03:33:56.428Z,83.00
2023-05-08T03:36:32.443Z,83.00
2023-05-08T03:39:09.061Z,82.90
2023-05-08T03:41:45.797Z,82.90
2023-05-08T03:44:23.663Z,83.00
2023-05-08T03:47:00.636Z,82.90
2023-05-08T03:49:38.624Z,83.10
2023-05-08T03:52:17.970Z,82.90
2023-05-08T03:54:54.640Z,83.00
2023-05-08T03:57:51.312Z,83.10
2023-05-08T04:00:51.720Z,83.10
2023-05-08T04:03:59.287Z,83.10
2023-05-08T04:06:55.132Z,83.10
2023-05-08T04:10:17.103Z,83.10
2023-05-08T04:13:06.928Z,82.90
2023-05-08T04:15:52.437Z,82.90
2023-05-08T04:18:32.439Z,83.00
2023-05-08T04:21:13.100Z,83.00
2023-05-08T04:23:52.072Z,83.10
2023-05-08T04:26:29.986Z,83.30
2023-05-08T04:29:09.672Z,83.30
2023-05-08T04:31:47.004Z,83.30
2023-05-08T04:34:23.776Z,83.30
2023-05-08T04:37:01.024Z,83.30
2023-05-08T04:39:37.378Z,83.90
2023-05-08T04:42:13.330Z,83.10
2023-05-08T04:44:49.225Z,83.00
2023-05-08T04:47:25.386Z,83.00
2023-05-08T04:50:02.751Z,82.90
2023-05-08T04:52:39.509Z,82.80
2023-05-08T04:55:15.873Z,82.60
2023-05-08T04:57:52.556Z,82.50
2023-05-08T05:00:28.626Z,82.40
2023-05-08T05:03:04.642Z,82.20
2023-05-08T05:05:41.048Z,82.30
2023-05-08T05:08:17.130Z,82.20
2023-05-08T05:10:53.493Z,82.10
2023-05-08T05:13:29.656Z,81.90
2023-05-08T05:16:06.195Z,81.80
2023-05-08T05:18:42.096Z,81.80
2023-05-08T05:21:18.159Z,81.80
2023-05-08T05:23:54.212Z,81.80
2023-05-08T05:26:30.267Z,81.60
2023-05-08T05:29:06.231Z,81.70
2023-05-08T05:31:42.496Z,82.10
2023-05-08T05:34:18.471Z,81.50
2023-05-08T05:36:54.428Z,81.30
2023-05-08T05:39:30.500Z,81.20
2023-05-08T05:42:06.487Z,80.80
2023-05-08T05:44:42.545Z,80.80
2023-05-08T05:47:18.913Z,80.50
2023-05-08T05:49:54.946Z,80.70
2023-05-08T05:52:30.936Z,81.00
2023-05-08T05:55:07.443Z,80.90
2023-05-08T05:57:43.411Z,81.00
2023-05-08T06:00:21.176Z,80.90
2023-05-08T06:03:02.392Z,81.00
2023-05-08T06:05:39.893Z,81.00
2023-05-08T06:08:17.873Z,80.80
2023-05-08T06:10:53.757Z,80.60
2023-05-08T06:13:29.833Z,80.40
2023-05-08T06:16:06.521Z,80.30
2023-05-08T06:18:42.393Z,80.20
2023-05-08T06:21:18.953Z,79.90
2023-05-08T06:23:55.068Z,79.70
2023-05-08T06:26:30.938Z,79.70
2023-05-08T06:29:06.783Z,79.60
2023-05-08T06:31:42.763Z,79.40
2023-05-08T06:34:18.759Z,79.40
2023-05-08T06:36:54.636Z,79.20
2023-05-08T06:39:30.667Z,79.00
2023-05-08T06:42:08.026Z,78.80
2023-05-08T06:44:47.685Z,78.60
2023-05-08T06:47:23.605Z,78.60
2023-05-08T06:50:01.099Z,78.40
2023-05-08T06:52:37.131Z,78.30
2023-05-08T06:55:13.208Z,78.40
2023-05-08T06:57:49.326Z,78.30
2023-05-08T07:00:25.447Z,77.90
2023-05-08T07:03:01.416Z,77.80
2023-05-08T07:05:37.323Z,77.70
2023-05-08T07:08:13.204Z,77.80
2023-05-08T07:10:49.107Z,77.50
2023-05-08T07:13:25.062Z,77.50
2023-05-08T07:16:01.028Z,77.40
2023-05-08T07:18:37.171Z,77.20
2023-05-08T07:21:13.216Z,77.00
2023-05-08T07:23:51.650Z,76.80
2023-05-08T07:26:27.557Z,76.40
2023-05-08T07:29:03.471Z,75.80
2023-05-08T07:31:41.117Z,75.50
2023-05-08T07:34:17.058Z,74.90
2023-05-08T07:36:52.946Z,74.80
2023-05-08T07:39:28.825Z,74.70
2023-05-08T07:42:04.669Z,74.30
2023-05-08T07:44:53.605Z,73.40
2023-05-08T07:47:30.501Z,73.30
2023-05-08T07:50:07.153Z,73.40
2023-05-08T07:52:43.063Z,72.60
2023-05-08T07:55:19.943Z,72.00
2023-05-08T07:57:55.865Z,71.40
2023-05-08T08:00:31.940Z,70.60
2023-05-08T08:03:07.956Z,70.10
2023-05-08T08:05:43.984Z,69.60
2023-05-08T08:08:20.363Z,69.10
2023-05-08T08:10:56.214Z,67.60
2023-05-08T08:13:32.956Z,66.70
2023-05-08T08:16:08.969Z,66.00
2023-05-08T08:18:44.883Z,65.30
2023-05-08T08:21:20.762Z,64.50
2023-05-08T08:23:56.830Z,63.30
2023-05-08T08:26:32.717Z,62.90
2023-05-08T08:29:08.666Z,62.00
2023-05-08T08:31:44.730Z,60.80
2023-05-08T08:34:20.633Z,58.80
2023-05-08T08:36:56.565Z,58.20
2023-05-08T08:39:35.854Z,57.60
2023-05-08T08:42:12.388Z,57.90
2023-05-08T08:44:48.307Z,58.30
2023-05-08T08:47:29.594Z,58.10
2023-05-08T08:50:08.155Z,57.70
2023-05-08T08:53:05.249Z,56.10
2023-05-08T08:55:46.664Z,53.30
2023-05-08T08:58:46.782Z,53.30
2023-05-08T09:01:24.336Z,53.60
2023-05-08T09:04:00.982Z,54.10
2023-05-08T09:06:38.387Z,54.00
2023-05-08T09:09:14.414Z,54.00
2023-05-08T09:11:53.331Z,54.10
2023-05-08T09:14:29.723Z,54.20
2023-05-08T09:17:05.745Z,54.50
2023-05-08T09:19:42.294Z,54.90
2023-05-08T09:22:18.317Z,55.60
2023-05-08T09:24:59.660Z,56.30
2023-05-08T09:27:36.786Z,56.90
2023-05-08T09:30:16.890Z,57.20
2023-05-08T09:33:02.513Z,57.50
2023-05-08T09:35:38.579Z,57.10
2023-05-08T09:38:38.417Z,55.40
2023-05-08T09:41:16.470Z,54.80
2023-05-08T09:44:07.180Z,54.00
2023-05-08T09:46:43.045Z,53.20
2023-05-08T09:49:19.311Z,52.90
2023-05-08T09:51:55.247Z,52.40
2023-05-08T09:54:31.135Z,51.70
2023-05-08T09:57:13.632Z,51.50
2023-05-08T09:59:49.555Z,51.30
2023-05-08T10:02:26.239Z,50.70
2023-05-08T10:05:04.263Z,48.70
2023-05-08T10:07:41.310Z,48.00
2023-05-08T10:10:27.501Z,48.00
2023-05-08T10:13:03.944Z,47.30
2023-05-08T10:15:43.891Z,47.20
2023-05-08T10:18:24.599Z,46.80
2023-05-08T10:21:06.632Z,46.60
2023-05-08T10:23:44.171Z,46.50
2023-05-08T10:26:31.188Z,46.20
2023-05-08T10:29:13.975Z,44.10
2023-05-08T10:31:55.308Z,44.50
2023-05-08T10:34:32.660Z,45.10
2023-05-08T10:37:12.171Z,44.50
2023-05-08T10:39:49.195Z,44.00
2023-05-08T10:42:27.649Z,43.90
2023-05-08T10:45:06.444Z,43.30
2023-05-08T10:48:16.194Z,42.50
2023-05-08T10:51:23.950Z,42.30
2023-05-08T10:54:08.159Z,41.80
2023-05-08T10:56:44.257Z,42.00
2023-05-08T10:59:21.125Z,42.00
2023-05-08T11:02:06.220Z,41.80
2023-05-08T11:04:43.882Z,41.90
2023-05-08T11:07:56.959Z,41.70
2023-05-08T11:10:36.980Z,41.50
2023-05-08T11:13:13.415Z,40.60
2023-05-08T11:15:52.546Z,41.00
2023-05-08T11:18:41.959Z,41.20
2023-05-08T11:21:24.664Z,40.60
2023-05-08T11:24:10.874Z,40.40
2023-05-08T11:26:49.504Z,40.50
2023-05-08T11:29:25.397Z,39.40
2023-05-08T11:32:01.385Z,39.50
2023-05-08T11:34:43.778Z,39.20
2023-05-08T11:37:24.005Z,39.20
2023-05-08T11:41:00.709Z,39.20
2023-05-08T11:44:19.963Z,39.20
2023-05-08T11:46:56.620Z,38.90
2023-05-08T11:49:32.600Z,39.20
2023-05-08T11:52:08.588Z,39.50
2023-05-08T11:54:44.523Z,39.40
2023-05-08T11:57:20.979Z,39.70
2023-05-08T11:59:56.899Z,39.40
2023-05-08T12:02:41.024Z,39.20
2023-05-08T12:05:27.063Z,38.20
2023-05-08T12:08:04.279Z,37.60
2023-05-08T12:10:46.896Z,36.80
2023-05-08T12:13:30.453Z,37.80
2023-05-08T12:16:07.528Z,37.10
2023-05-08T12:18:44.059Z,37.10
2023-05-08T12:21:21.357Z,35.60
2023-05-08T12:23:58.067Z,36.10
2023-05-08T12:26:38.631Z,36.00
2023-05-08T12:29:14.503Z,36.00
2023-05-08T12:31:51.134Z,36.00
2023-05-08T12:34:27.724Z,36.10
2023-05-08T12:37:04.533Z,36.40
2023-05-08T12:39:44.792Z,35.50
2023-05-08T12:42:21.225Z,34.60
2023-05-08T12:44:57.936Z,34.50
2023-05-08T12:47:33.839Z,35.30
2023-05-08T12:50:12.263Z,35.10
2023-05-08T12:52:51.568Z,34.30
2023-05-08T12:55:30.613Z,34.10
2023-05-08T12:58:15.268Z,35.90
2023-05-08T13:00:53.289Z,35.80
2023-05-08T13:03:30.541Z,35.80
2023-05-08T13:06:07.010Z,36.00
2023-05-08T13:08:42.898Z,37.00
2023-05-08T13:11:33.234Z,37.00
2023-05-08T13:14:09.525Z,37.30
2023-05-08T13:16:48.597Z,37.50
2023-05-08T13:19:24.506Z,37.80
2023-05-08T13:22:00.457Z,38.10
2023-05-08T13:24:36.330Z,38.10
2023-05-08T13:27:13.515Z,38.90
2023-05-08T13:29:49.458Z,39.80
2023-05-08T13:32:25.465Z,39.40
2023-05-08T13:35:01.421Z,39.70
2023-05-08T13:37:37.301Z,40.50
2023-05-08T13:40:14.498Z,42.20
2023-05-08T13:42:50.810Z,45.60
2023-05-08T13:45:26.761Z,51.20
2023-05-08T13:48:02.706Z,53.30
2023-05-08T13:50:38.637Z,57.60
2023-05-08T13:53:14.555Z,58.50
2023-05-08T13:55:50.473Z,58.90
2023-05-08T13:58:26.461Z,60.20
2023-05-08T14:01:13.874Z,63.60
2023-05-08T14:03:58.266Z,64.90
2023-05-08T14:06:34.233Z,65.70
2023-05-08T14:09:10.144Z,65.80
2023-05-08T14:11:46.198Z,67.00
2023-05-08T14:14:22.057Z,68.10
2023-05-08T14:16:57.923Z,66.60
2023-05-08T14:19:34.046Z,67.70
2023-05-08T14:22:10.071Z,68.60
2023-05-08T14:24:46.005Z,69.00
2023-05-08T14:27:21.935Z,66.20
2023-05-08T14:29:57.955Z,64.40
2023-05-08T14:32:33.977Z,66.10
2023-05-08T14:35:10.336Z,67.90
2023-05-08T14:37:46.215Z,68.60
2023-05-08T14:40:24.410Z,67.90
2023-05-08T14:43:00.503Z,59.90
2023-05-08T14:45:36.504Z,59.60
2023-05-08T14:48:12.531Z,62.50
2023-05-08T14:50:48.456Z,64.80
2023-05-08T14:53:24.622Z,62.50
2023-05-08T14:56:01.080Z,59.00
2023-05-08T14:58:37.399Z,57.90
2023-05-08T15:01:13.333Z,58.30
2023-05-08T15:03:53.390Z,58.30
2023-05-08T15:06:31.065Z,55.80
2023-05-08T15:09:09.569Z,55.70
2023-05-08T15:11:45.627Z,57.70
2023-05-08T15:14:21.533Z,60.90
2023-05-08T15:16:57.671Z,62.40
2023-05-08T15:19:33.550Z,59.80
2023-05-08T15:22:09.587Z,58.40
2023-05-08T15:24:45.456Z,59.80
2023-05-08T15:27:21.361Z,61.60
2023-05-08T15:29:57.993Z,62.70
2023-05-08T15:32:34.886Z,62.90
2023-05-08T15:35:10.823Z,63.00
2023-05-08T15:37:46.702Z,63.70
2023-05-08T15:40:22.583Z,64.40
2023-05-08T15:42:58.556Z,63.90
2023-05-08T15:45:34.552Z,62.50
2023-05-08T15:48:10.546Z,61.00
2023-05-08T15:50:46.464Z,59.90
2023-05-08T15:53:22.699Z,59.00
2023-05-08T15:55:58.563Z,59.10
2023-05-08T15:58:36.622Z,59.50
2023-05-08T16:01:12.555Z,59.10
2023-05-08T16:03:49.142Z,59.20
2023-05-08T16:06:25.072Z,57.90
2023-05-08T16:09:01.809Z,56.50
2023-05-08T16:11:37.687Z,55.50
2023-05-08T16:14:14.065Z,54.60
2023-05-08T16:16:49.959Z,54.30
2023-05-08T16:19:25.893Z,54.20
2023-05-08T16:22:01.843Z,53.40
2023-05-08T16:24:37.776Z,52.90
2023-05-08T16:27:13.697Z,53.50
2023-05-08T16:29:49.641Z,52.90
2023-05-08T16:32:27.103Z,54.30
2023-05-08T16:35:03.162Z,52.50
2023-05-08T16:37:39.455Z,52.30
2023-05-08T16:40:15.385Z,52.40
2023-05-08T16:42:51.498Z,52.20
2023-05-08T16:45:27.862Z,52.10
2023-05-08T16:48:04.185Z,52.20
2023-05-08T16:50:40.145Z,51.20
2023-05-08T16:53:16.057Z,51.40
2023-05-08T16:55:51.952Z,52.50
2023-05-08T16:58:27.934Z,52.50
2023-05-08T17:01:03.842Z,52.70
2023-05-08T17:03:39.824Z,52.90
2023-05-08T17:06:15.750Z,52.80
2023-05-08T17:08:51.780Z,54.80
2023-05-08T17:11:27.619Z,55.90
2023-05-08T17:14:03.499Z,55.60
2023-05-08T17:16:39.828Z,55.70
2023-05-08T17:19:15.876Z,56.10
2023-05-08T17:21:51.928Z,56.60
2023-05-08T17:24:30.285Z,57.00
2023-05-08T17:27:07.189Z,57.70
2023-05-08T17:29:43.091Z,58.30
2023-05-08T17:32:19.082Z,58.80
2023-05-08T17:34:55.008Z,59.50
2023-05-08T17:37:30.976Z,60.70
2023-05-08T17:40:08.180Z,60.80
2023-05-08T17:42:44.208Z,61.70
2023-05-08T17:45:20.147Z,62.80
2023-05-08T17:47:56.186Z,63.40
2023-05-08T17:50:33.874Z,62.80
2023-05-08T17:53:09.770Z,62.30
2023-05-08T17:55:46.142Z,61.90
2023-05-08T17:58:22.068Z,61.70
2023-05-08T18:00:58.204Z,61.70
2023-05-08T18:03:34.183Z,62.30
2023-05-08T18:06:10.282Z,62.90
2023-05-08T18:08:46.932Z,63.60
2023-05-08T18:11:26.067Z,64.70
2023-05-08T18:14:06.983Z,65.70
2023-05-08T18:16:43.048Z,66.80
2023-05-08T18:19:19.033Z,67.40
2023-05-08T18:21:55.224Z,67.00
2023-05-08T18:24:31.301Z,68.30
2023-05-08T18:27:07.265Z,68.30
2023-05-08T18:29:43.299Z,69.00
2023-05-08T18:32:19.367Z,69.20
2023-05-08T18:34:56.853Z,68.80
2023-05-08T18:37:32.803Z,69.70
2023-05-08T18:40:09.441Z,70.30
2023-05-08T18:42:46.100Z,70.70
2023-05-08T18:45:22.848Z,72.00
2023-05-08T18:47:58.894Z,72.70
2023-05-08T18:50:35.425Z,73.20
2023-05-08T18:53:14.503Z,73.40
2023-05-08T18:55:51.022Z,73.60
2023-05-08T18:58:27.090Z,74.00
2023-05-08T19:01:03.129Z,74.00
2023-05-08T19:03:39.072Z,74.00
2023-05-08T19:06:15.097Z,73.40
2023-05-08T19:08:52.150Z,73.40
2023-05-08T19:11:28.313Z,74.10
2023-05-08T19:14:04.413Z,74.50
2023-05-08T19:16:40.345Z,74.80
2023-05-08T19:19:16.320Z,74.70
2023-05-08T19:21:52.194Z,75.30
2023-05-08T19:24:29.949Z,76.00
2023-05-08T19:27:06.718Z,76.30
2023-05-08T19:29:42.613Z,76.40
2023-05-08T19:32:18.567Z,76.20
2023-05-08T19:34:57.339Z,75.90
2023-05-08T19:37:33.371Z,75.20
2023-05-08T19:40:09.930Z,75.20
2023-05-08T19:42:45.881Z,75.20
2023-05-08T19:45:21.929Z,75.20
2023-05-08T19:47:57.977Z,75.10
2023-05-08T19:50:33.880Z,74.90
2023-05-08T19:53:09.919Z,75.20
2023-05-08T19:55:45.798Z,75.50
2023-05-08T19:58:21.660Z,75.40
2023-05-08T20:00:57.690Z,75.70
2023-05-08T20:03:33.642Z,76.30
2023-05-08T20:06:09.629Z,76.10
2023-05-08T20:08:45.820Z,76.20
2023-05-08T20:11:22.002Z,76.20
2023-05-08T20:13:57.979Z,76.70
2023-05-08T20:16:33.945Z,77.00
2023-05-08T20:19:09.895Z,76.80
2023-05-08T20:21:45.785Z,77.10
2023-05-08T20:24:21.750Z,77.50
2023-05-08T20:26:57.792Z,78.10
2023-05-08T20:29:33.921Z,78.40
2023-05-08T20:32:14.574Z,78.80
2023-05-08T20:34:50.810Z,78.90
2023-05-08T20:37:26.852Z,78.90
2023-05-08T20:40:04.773Z,79.10
2023-05-08T20:42:43.326Z,79.00
2023-05-08T20:45:19.305Z,79.00
2023-05-08T20:47:55.478Z,78.90
2023-05-08T20:50:31.419Z,78.80
2023-05-08T20:53:07.354Z,78.50
2023-05-08T20:55:43.292Z,78.30
2023-05-08T20:58:19.180Z,78.40
2023-05-08T21:00:55.135Z,78.30
2023-05-08T21:03:31.373Z,78.20
2023-05-08T21:06:07.546Z,78.30
2023-05-08T21:08:43.665Z,78.20
2023-05-08T21:11:19.591Z,78.10
2023-05-08T21:13:55.487Z,78.20
2023-05-08T21:16:31.555Z,78.40
2023-05-08T21:19:09.746Z,79.00
2023-05-08T21:21:49.126Z,78.70
2023-05-08T21:24:25.665Z,78.70
2023-05-08T21:27:01.570Z,78.50
2023-05-08T21:29:37.434Z,78.50
2023-05-08T21:32:13.291Z,78.40
2023-05-08T21:34:49.154Z,78.50
2023-05-08T21:37:25.023Z,78.60
2023-05-08T21:40:01.117Z,78.80
2023-05-08T21:42:37.189Z,79.10
2023-05-08T21:45:13.164Z,79.10
2023-05-08T21:47:49.174Z,79.20
2023-05-08T21:50:25.416Z,79.20
2023-05-08T21:53:01.419Z,79.20
2023-05-08T21:55:37.278Z,79.00
2023-05-08T21:58:13.310Z,78.90
2023-05-08T22:00:51.691Z,79.20
2023-05-08T22:03:28.073Z,79.30
2023-05-08T22:06:04.147Z,79.40
2023-05-08T22:08:40.032Z,79.30
2023-05-08T22:11:15.983Z,79.40
2023-05-08T22:13:51.865Z,79.70
2023-05-08T22:16:29.031Z,80.10
2023-05-08T22:19:05.086Z,80.70
2023-05-08T22:21:41.164Z,80.80
2023-05-08T22:24:18.993Z,80.70
2023-05-08T22:26:54.914Z,80.50
2023-05-08T22:29:30.861Z,80.30
2023-05-08T22:32:08.295Z,80.40
2023-05-08T22:34:46.387Z,80.20
2023-05-08T22:37:22.802Z,80.40
2023-05-08T22:39:58.829Z,80.10
2023-05-08T22:42:34.728Z,80.00
2023-05-08T22:45:12.439Z,80.00
2023-05-08T22:47:48.869Z,80.00
2023-05-08T22:50:24.870Z,80.00
2023-05-08T22:53:01.238Z,80.00
2023-05-08T22:55:38.212Z,79.90
2023-05-08T22:58:14.081Z,80.50
2023-05-08T23:00:50.018Z,80.20
2023-05-08T23:03:26.021Z,80.30
2023-05-08T23:06:02.101Z,80.20
2023-05-08T23:08:37.957Z,80.30
2023-05-08T23:11:13.873Z,80.40
2023-05-08T23:13:49.720Z,80.60
2023-05-08T23:16:26.143Z,80.90
2023-05-08T23:19:02.161Z,81.40
2023-05-08T23:21:38.025Z,81.80
2023-05-08T23:24:13.909Z,82.00
2023-05-08T23:26:49.932Z,82.30
2023-05-08T23:29:26.086Z,83.00
2023-05-08T23:32:01.947Z,82.40
2023-05-08T23:34:37.918Z,82.30
2023-05-08T23:37:13.785Z,82.30
2023-05-08T23:39:49.659Z,82.20
2023-05-08T23:42:25.521Z,82.20
2023-05-08T23:45:01.414Z,82.10
2023-05-08T23:47:37.328Z,82.00
2023-05-08T23:50:13.187Z,82.20
2023-05-08T23:52:49.104Z,82.10
2023-05-08T23:55:25.554Z,82.10
2023-05-08T23:58:01.530Z,82.10
